Time;durP1;ratioP1;P1;durP2;ratioP2;P2;SDS_P1;SDS_P2;PMS_P1;PMS_P2;Temp;Humidity;BMP_temperature;BMP_pressure;BME280_temperature;BME280_humidity;BME280_pressure;Samples;Min_cycle;Max_cycle;Signal;HPM_P1;HPM_P2
2022/08/26 00:02:02;;;;;;;;;;;;;;;19.10;83.85;94879.44;5130638;27;1381;-49
2022/08/26 00:04:30;;;;;;;;;;;;;;;18.90;84.92;94876.88;5132888;27;1403;-49
2022/08/26 00:06:56;;;;;;;;;;;;;;;18.98;84.82;94893.91;5132718;27;1686;-49
2022/08/26 00:09:24;;;;;;;;;;;;;;;19.28;83.23;94878.66;5132589;27;1914;-49
2022/08/26 00:11:50;;;;;;;;;;;;;;;19.41;82.70;94880.41;5112986;27;1544;-49
2022/08/26 00:14:16;;;;;;;;;;;;;;;19.29;83.44;94866.78;5112663;27;1666;-49
2022/08/26 00:16:42;;;;;;;;;;;;;;;19.40;82.42;94869.78;5112712;28;1606;-49
2022/08/26 00:19:08;;;;;;;;;;;;;;;19.54;81.86;94868.63;5112226;28;1588;-49
2022/08/26 00:21:34;;;;;;;;;;;;;;;19.11;83.68;94881.09;5112560;27;1482;-49
2022/08/26 00:24:00;;;;;;;;;;;;;;;18.95;83.98;94876.19;5112310;27;1593;-49
2022/08/26 00:26:27;;;;;;;;;;;;;;;19.17;82.59;94871.25;5112161;28;1597;-49
2022/08/26 00:28:53;;;;;;;;;;;;;;;19.02;84.07;94876.97;5112058;28;1910;-49
2022/08/26 00:31:19;;;;;;;;;;;;;;;18.92;84.53;94873.94;5112145;28;1395;-49
2022/08/26 00:33:45;;;;;;;;;;;;;;;19.06;84.38;94872.78;5112010;28;1586;-49
2022/08/26 00:36:11;;;;;;;;;;;;;;;18.98;85.92;94880.38;5112045;27;1427;-49
2022/08/26 00:38:37;;;;;;;;;;;;;;;18.91;85.13;94877.69;5112018;27;1532;-49
2022/08/26 00:41:04;;;;;;;;;;;;;;;19.01;84.52;94871.78;5111993;28;1348;-49
2022/08/26 00:43:32;;;;;;;;;;;;;;;19.23;83.08;94877.66;5112132;27;1428;-50
2022/08/26 00:46:12;;;;;;;;;;;;;;;19.24;84.52;94876.63;5112114;27;1575;-49
2022/08/26 00:48:42;;;;;;;;;;;;;;;19.06;84.14;94885.50;5130784;27;1937;-49
2022/08/26 00:51:14;;;;;;;;;;;;;;;19.11;83.63;94888.38;5131777;27;1421;-49
2022/08/26 00:53:43;;;;;;;;;;;;;;;19.06;84.39;94880.09;5131797;27;1519;-49
2022/08/26 00:56:14;;;;;;;;;;;;;;;19.30;83.05;94873.00;5131976;27;1458;-49
2022/08/26 00:58:41;;;;;;;;;;;;;;;19.38;82.94;94875.44;5131846;27;1514;-49
2022/08/26 01:01:08;;;;;;;;;;;;;;;19.37;83.01;94875.66;5131685;27;1491;-49
2022/08/26 01:03:35;;;;;;;;;;;;;;;19.21;83.72;94868.91;5131399;27;1426;-50
2022/08/26 01:06:02;;;;;;;;;;;;;;;19.11;83.88;94877.56;5131691;27;1482;-49
2022/08/26 01:08:28;;;;;;;;;;;;;;;18.85;84.92;94881.28;5131432;27;1998;-50
2022/08/26 01:10:56;;;;;;;;;;;;;;;18.77;84.39;94874.22;5132011;27;1510;-49
2022/08/26 01:13:22;;;;;;;;;;;;;;;18.99;84.16;94865.75;5131448;27;1497;-49
2022/08/26 01:15:49;;;;;;;;;;;;;;;18.83;85.68;94867.94;5131427;27;1610;-50
2022/08/26 01:18:16;;;;;;;;;;;;;;;18.62;85.80;94857.47;5130951;27;1399;-49
2022/08/26 01:20:58;;;;;;;;;;;;;;;18.80;85.06;94856.69;5131243;27;1670;-49
2022/08/26 01:23:30;;;;;;;;;;;;;;;18.95;84.32;94859.13;5131587;27;1411;-49
2022/08/26 01:26:06;;;;;;;;;;;;;;;18.99;84.87;94863.03;5131512;27;1394;-49
2022/08/26 01:28:33;;;;;;;;;;;;;;;18.67;85.54;94865.75;5131202;27;1918;-49
2022/08/26 01:31:01;;;;;;;;;;;;;;;18.74;85.17;94863.81;5131489;28;1410;-49
2022/08/26 01:33:30;;;;;;;;;;;;;;;18.69;85.55;94859.06;5131282;28;1505;-50
2022/08/26 01:35:57;;;;;;;;;;;;;;;18.52;87.38;94868.78;5131469;28;1545;-49
2022/08/26 01:38:23;;;;;;;;;;;;;;;18.38;86.21;94868.00;5131341;28;1411;-50
2022/08/26 01:40:49;;;;;;;;;;;;;;;18.44;86.93;94864.44;5131354;28;1524;-49
2022/08/26 01:43:17;;;;;;;;;;;;;;;18.45;86.52;94868.78;5131110;28;1559;-49
2022/08/26 01:45:44;;;;;;;;;;;;;;;18.43;86.45;94867.34;5114750;27;1249;-49
2022/08/26 01:48:13;;;;;;;;;;;;;;;18.34;86.89;94869.47;5129184;28;1917;-49
2022/08/26 01:50:40;;;;;;;;;;;;;;;18.19;88.06;94869.75;5131141;28;1632;-49
2022/08/26 01:53:07;;;;;;;;;;;;;;;18.34;86.95;94873.03;5131456;28;1685;-49
2022/08/26 01:55:35;;;;;;;;;;;;;;;18.50;86.63;94868.97;5131037;28;1654;-49
2022/08/26 01:58:06;;;;;;;;;;;;;;;18.32;86.29;94861.56;5131409;28;1603;-49
2022/08/26 02:00:34;;;;;;;;;;;;;;;18.34;86.58;94864.06;5130794;28;1651;-49
2022/08/26 02:03:35;;;;;;;;;;;;;;;18.44;85.37;94869.84;5131120;28;1438;-50
2022/08/26 02:05:54;;;;;;;;;;;;;;;18.39;85.87;94869.66;5126832;28;1625;-49
2022/08/26 02:08:24;;;;;;;;;;;;;;;18.16;87.06;94872.09;5131433;28;1914;-49
2022/08/26 02:10:50;;;;;;;;;;;;;;;18.27;87.19;94871.41;5130719;28;1515;-49
2022/08/26 02:13:16;;;;;;;;;;;;;;;18.20;87.03;94865.19;5113251;28;1520;-49
2022/08/26 02:15:43;;;;;;;;;;;;;;;18.04;87.95;94867.34;5111423;28;1611;-49
2022/08/26 02:18:10;;;;;;;;;;;;;;;17.89;88.06;94856.78;5111016;28;1403;-50
2022/08/26 02:20:36;;;;;;;;;;;;;;;17.83;88.62;94857.63;5111020;28;1553;-49
2022/08/26 02:23:02;;;;;;;;;;;;;;;17.88;88.67;94859.69;5111058;28;1559;-50
2022/08/26 02:26:07;;;;;;;;;;;;;;;17.89;88.72;94866.75;5110878;28;1555;-49
2022/08/26 02:28:36;;;;;;;;;;;;;;;17.84;88.53;94858.44;5067482;28;1902;-49
2022/08/26 02:31:02;;;;;;;;;;;;;;;17.68;89.15;94865.97;5069922;28;1709;-50
2022/08/26 02:33:29;;;;;;;;;;;;;;;17.83;87.84;94857.63;5085350;27;1518;-50
2022/08/26 02:35:55;;;;;;;;;;;;;;;17.98;87.10;94862.75;5134374;27;1583;-50
2022/08/26 02:38:21;;;;;;;;;;;;;;;17.97;87.61;94863.81;5134369;27;1512;-49
2022/08/26 02:40:47;;;;;;;;;;;;;;;17.92;87.98;94863.63;5134567;27;1543;-49
2022/08/26 02:43:13;;;;;;;;;;;;;;;17.88;87.91;94859.69;5134464;27;1649;-49
2022/08/26 02:45:39;;;;;;;;;;;;;;;17.90;86.58;94863.00;5116510;27;1277;-49
2022/08/26 02:48:16;;;;;;;;;;;;;;;18.07;86.14;94860.66;5132318;27;1913;-49
2022/08/26 02:50:42;;;;;;;;;;;;;;;18.02;86.55;94861.31;5134415;27;1624;-49
2022/08/26 02:53:09;;;;;;;;;;;;;;;17.81;87.73;94865.09;5134609;27;1482;-49
2022/08/26 02:55:35;;;;;;;;;;;;;;;17.81;87.48;94856.16;5134369;27;1929;-49
2022/08/26 02:58:01;;;;;;;;;;;;;;;17.92;86.69;94858.22;5134105;27;1426;-49
2022/08/26 03:00:27;;;;;;;;;;;;;;;17.77;87.34;94858.44;5133754;27;1549;-49
2022/08/26 03:02:53;;;;;;;;;;;;;;;17.99;86.04;94855.50;5134401;27;1543;-49
2022/08/26 03:05:20;;;;;;;;;;;;;;;17.97;86.38;94852.19;5114057;28;1280;-49
2022/08/26 03:07:47;;;;;;;;;;;;;;;17.74;88.19;94848.91;5113970;27;1988;-49
2022/08/26 03:10:15;;;;;;;;;;;;;;;17.77;87.08;94850.34;5122527;27;1532;-49
2022/08/26 03:12:41;;;;;;;;;;;;;;;17.88;85.85;94848.88;5136710;27;1025;-49
2022/08/26 03:15:08;;;;;;;;;;;;;;;17.98;85.71;94849.25;5136549;27;1056;-49
2022/08/26 03:17:34;;;;;;;;;;;;;;;17.78;87.18;94845.78;5136455;27;1035;-49
2022/08/26 03:20:00;;;;;;;;;;;;;;;17.82;86.34;94841.59;5136476;27;1055;-49
2022/08/26 03:22:26;;;;;;;;;;;;;;;17.91;85.98;94848.47;5136252;27;1072;-49
2022/08/26 03:24:52;;;;;;;;;;;;;;;18.01;85.37;94846.13;5136625;27;957;-48
2022/08/26 03:27:18;;;;;;;;;;;;;;;18.03;86.54;94846.72;5136249;27;1011;-49
2022/08/26 03:32:29;;;;;;;;;;;;;;;17.92;86.33;94856.34;5136087;27;1015;-49
2022/08/26 03:34:55;;;;;;;;;;;;;;;17.79;87.41;94853.66;5136457;27;941;-49
2022/08/26 03:37:21;;;;;;;;;;;;;;;17.64;88.30;94858.47;5135924;27;997;-49
2022/08/26 03:39:47;;;;;;;;;;;;;;;17.51;88.14;94860.19;5136286;27;1040;-49
2022/08/26 03:42:13;;;;;;;;;;;;;;;17.46;88.79;94859.97;5134901;27;972;-49
2022/08/26 03:44:39;;;;;;;;;;;;;;;17.51;88.35;94862.03;5147272;27;1244;-49
2022/08/26 03:47:06;;;;;;;;;;;;;;;17.54;88.01;94858.94;5156463;27;1067;-49
2022/08/26 03:49:33;;;;;;;;;;;;;;;17.46;88.68;94868.09;5156606;27;1987;-49
2022/08/26 03:51:59;;;;;;;;;;;;;;;17.36;89.28;94863.13;5156659;27;969;-49
2022/08/26 03:54:25;;;;;;;;;;;;;;;17.44;88.88;94864.78;5156633;27;1208;-49
2022/08/26 03:56:52;;;;;;;;;;;;;;;17.50;88.83;94860.41;5156326;27;1080;-49
2022/08/26 03:59:18;;;;;;;;;;;;;;;17.53;88.83;94866.22;5156221;27;1850;-50
2022/08/26 04:01:44;;;;;;;;;;;;;;;17.63;87.91;94867.66;5156151;27;1028;-49
2022/08/26 04:04:10;;;;;;;;;;;;;;;17.47;88.44;94866.22;5156570;27;972;-49
2022/08/26 04:06:37;;;;;;;;;;;;;;;17.50;88.61;94868.50;5156326;27;972;-49
2022/08/26 04:09:06;;;;;;;;;;;;;;;17.40;88.99;94873.53;5156288;27;1914;-49
2022/08/26 04:11:34;;;;;;;;;;;;;;;17.43;88.94;94864.97;5156178;27;1019;-49
2022/08/26 04:14:03;;;;;;;;;;;;;;;17.43;88.91;94860.41;5156202;27;1067;-48
2022/08/26 04:16:30;;;;;;;;;;;;;;;17.51;89.07;94864.75;5156045;27;1075;-49
2022/08/26 04:18:56;;;;;;;;;;;;;;;17.55;88.88;94866.00;5156265;27;927;-49
2022/08/26 04:21:22;;;;;;;;;;;;;;;17.55;89.26;94863.31;5155968;27;1027;-49
2022/08/26 04:23:49;;;;;;;;;;;;;;;17.61;87.91;94867.84;5155807;27;1027;-49
2022/08/26 04:26:15;;;;;;;;;;;;;;;17.80;86.46;94865.31;5155926;27;1049;-49
2022/08/26 04:28:41;;;;;;;;;;;;;;;17.99;85.41;94869.84;5155554;27;1988;-49
2022/08/26 04:31:14;;;;;;;;;;;;;;;18.01;86.17;94867.75;5155769;27;1028;-49
2022/08/26 04:33:40;;;;;;;;;;;;;;;17.96;87.21;94872.97;5155818;27;1032;-49
2022/08/26 04:36:07;;;;;;;;;;;;;;;17.72;88.01;94863.69;5155698;27;1040;-48
2022/08/26 04:38:33;;;;;;;;;;;;;;;17.72;87.57;94864.50;5155624;27;1052;-49
2022/08/26 04:40:59;;;;;;;;;;;;;;;18.07;86.48;94866.91;5155634;27;1056;-48
2022/08/26 04:43:29;;;;;;;;;;;;;;;18.22;86.40;94866.63;5154601;27;1160;-49
2022/08/26 04:45:57;;;;;;;;;;;;;;;18.32;85.87;94860.75;5134874;27;1933;-49
2022/08/26 04:48:23;;;;;;;;;;;;;;;18.49;86.54;94870.00;5134495;27;1914;-49
2022/08/26 04:50:50;;;;;;;;;;;;;;;18.60;86.85;94863.09;5134953;27;1048;-49
2022/08/26 04:53:16;;;;;;;;;;;;;;;18.57;86.67;94858.09;5134261;27;1110;-49
2022/08/26 04:55:42;;;;;;;;;;;;;;;18.66;85.47;94861.38;5134743;27;1043;-49
2022/08/26 04:58:08;;;;;;;;;;;;;;;18.97;83.24;94849.75;5134361;27;1874;-49
2022/08/26 05:00:34;;;;;;;;;;;;;;;18.87;85.25;94861.03;5134563;27;1111;-49
2022/08/26 05:03:00;;;;;;;;;;;;;;;18.67;86.02;94857.63;5134870;27;1076;-49
2022/08/26 05:05:26;;;;;;;;;;;;;;;18.74;86.58;94855.69;5134430;27;1032;-49
2022/08/26 05:07:52;;;;;;;;;;;;;;;18.76;87.24;94866.31;5134306;27;1992;-49
2022/08/26 05:10:18;;;;;;;;;;;;;;;18.69;87.48;94864.50;5134304;27;1068;-48
2022/08/26 05:12:44;;;;;;;;;;;;;;;18.73;88.01;94865.69;5134243;27;1035;-49
2022/08/26 05:15:10;;;;;;;;;;;;;;;18.72;87.56;94864.06;5134609;27;972;-49
2022/08/26 05:17:37;;;;;;;;;;;;;;;18.85;86.79;94871.28;5134410;27;993;-50
2022/08/26 05:20:03;;;;;;;;;;;;;;;19.06;84.79;94861.13;5116065;28;1105;-48
2022/08/26 05:22:29;;;;;;;;;;;;;;;19.01;85.75;94858.22;5134366;27;972;-49
2022/08/26 05:24:55;;;;;;;;;;;;;;;18.97;87.64;94868.72;5134206;27;961;-49
2022/08/26 05:27:21;;;;;;;;;;;;;;;19.00;86.90;94872.84;5134111;27;1051;-49
2022/08/26 05:29:47;;;;;;;;;;;;;;;19.11;87.10;94870.25;5134183;27;2022;-50
2022/08/26 05:32:13;;;;;;;;;;;;;;;19.24;86.13;94877.44;5134350;28;1043;-49
2022/08/26 05:34:39;;;;;;;;;;;;;;;19.60;83.39;94866.91;5134137;28;1055;-50
2022/08/26 05:37:05;;;;;;;;;;;;;;;19.95;82.01;94869.06;5134209;28;972;-49
2022/08/26 05:39:32;;;;;;;;;;;;;;;20.37;78.94;94871.88;5133953;28;1016;-50
2022/08/26 05:41:58;;;;;;;;;;;;;;;20.61;78.71;94868.22;5134038;28;1031;-49
2022/08/26 05:44:24;;;;;;;;;;;;;;;20.73;77.74;94875.59;5143003;27;1378;-49
2022/08/26 05:46:50;;;;;;;;;;;;;;;20.72;76.55;94871.22;5155165;27;1043;-50
2022/08/26 05:49:16;;;;;;;;;;;;;;;20.85;76.20;94871.84;5154580;27;1922;-50
2022/08/26 05:51:43;;;;;;;;;;;;;;;21.04;75.71;94872.63;5154799;27;969;-50
2022/08/26 05:54:09;;;;;;;;;;;;;;;21.23;76.08;94867.09;5136237;27;1067;-50
2022/08/26 05:56:36;;;;;;;;;;;;;;;21.41;75.39;94875.13;5154654;27;1130;-50
2022/08/26 05:59:02;;;;;;;;;;;;;;;21.34;77.73;94870.88;5154244;27;1115;-50
2022/08/26 06:01:28;;;;;;;;;;;;;;;21.32;75.13;94875.72;5154884;27;1019;-50
2022/08/26 06:03:56;;;;;;;;;;;;;;;21.51;75.06;94876.47;5154571;27;987;-50
2022/08/26 06:06:23;;;;;;;;;;;;;;;21.77;73.92;94877.91;5158152;27;1047;-49
2022/08/26 06:08:50;;;;;;;;;;;;;;;21.98;73.57;94871.81;5158414;27;1984;-49
2022/08/26 06:11:17;;;;;;;;;;;;;;;22.33;73.86;94881.84;5158520;27;1042;-50
2022/08/26 06:13:43;;;;;;;;;;;;;;;22.61;73.58;94880.22;5158614;27;956;-50
2022/08/26 06:16:11;;;;;;;;;;;;;;;22.49;73.44;94888.44;5158399;27;1024;-52
2022/08/26 06:18:39;;;;;;;;;;;;;;;22.45;73.22;94881.81;5158484;27;953;-50
2022/08/26 06:21:15;;;;;;;;;;;;;;;22.27;73.62;94880.09;5158472;27;960;-51
2022/08/26 06:26:26;;;;;;;;;;;;;;;22.18;72.36;94871.44;5158509;27;991;-50
2022/08/26 06:28:54;;;;;;;;;;;;;;;22.11;72.75;94875.38;5158032;27;1917;-50
2022/08/26 06:31:21;;;;;;;;;;;;;;;22.20;72.23;94876.66;5158275;27;1024;-50
2022/08/26 06:33:49;;;;;;;;;;;;;;;22.35;71.44;94879.72;5158153;27;1011;-50
2022/08/26 06:36:19;;;;;;;;;;;;;;;22.17;72.60;94875.22;5157975;27;1036;-50
2022/08/26 06:38:46;;;;;;;;;;;;;;;22.10;72.24;94880.00;5158531;27;956;-50
2022/08/26 06:41:12;;;;;;;;;;;;;;;22.18;71.17;94889.69;5157925;27;921;-50
2022/08/26 06:43:38;;;;;;;;;;;;;;;22.21;71.83;94889.19;5155442;27;1156;-50
2022/08/26 06:46:06;;;;;;;;;;;;;;;22.17;71.71;94888.00;5137051;27;1080;-50
2022/08/26 06:48:33;;;;;;;;;;;;;;;22.36;70.81;94884.09;5137178;27;1992;-50
2022/08/26 06:51:02;;;;;;;;;;;;;;;23.05;68.55;94888.72;5136943;27;1024;-51
2022/08/26 06:53:27;;;;;;;;;;;;;;;23.68;66.05;94883.19;5137347;27;1027;-51
2022/08/26 06:55:53;;;;;;;;;;;;;;;24.50;62.64;94889.78;5136859;27;1024;-50
2022/08/26 06:58:19;;;;;;;;;;;;;;;24.42;63.59;94884.78;5136871;27;992;-51
2022/08/26 07:00:45;;;;;;;;;;;;;;;24.29;62.59;94875.88;5136720;27;1111;-51
2022/08/26 07:03:12;;;;;;;;;;;;;;;25.03;61.47;94882.75;5136859;27;1063;-51
2022/08/26 07:05:38;;;;;;;;;;;;;;;25.89;58.91;94883.75;5136399;27;969;-50
2022/08/26 07:08:04;;;;;;;;;;;;;;;26.53;58.01;94888.22;5136870;27;1926;-51
2022/08/26 07:10:30;;;;;;;;;;;;;;;27.28;54.15;94885.22;5136766;27;968;-51
2022/08/26 07:12:56;;;;;;;;;;;;;;;27.65;52.70;94882.19;5136701;27;1870;-51
2022/08/26 07:15:22;;;;;;;;;;;;;;;27.70;52.72;94886.84;5136429;27;1032;-51
2022/08/26 07:17:48;;;;;;;;;;;;;;;27.55;53.98;94884.13;5136613;27;1029;-52
2022/08/26 07:20:14;;;;;;;;;;;;;;;27.68;53.19;94885.47;5136204;27;1048;-51
2022/08/26 07:22:40;;;;;;;;;;;;;;;27.84;52.68;94893.41;5136663;27;961;-51
2022/08/26 07:25:07;;;;;;;;;;;;;;;28.10;52.78;94893.44;5136375;27;981;-51
2022/08/26 07:27:34;;;;;;;;;;;;;;;28.28;50.27;94889.25;5136563;27;969;-51
2022/08/26 07:30:00;;;;;;;;;;;;;;;28.39;50.71;94890.06;5136125;27;1902;-51
2022/08/26 07:32:27;;;;;;;;;;;;;;;27.96;51.10;94890.41;5136228;27;980;-52
2022/08/26 07:34:52;;;;;;;;;;;;;;;27.72;51.70;94886.59;5135989;27;1089;-51
2022/08/26 07:37:19;;;;;;;;;;;;;;;27.73;52.05;94883.53;5136349;27;976;-52
2022/08/26 07:39:45;;;;;;;;;;;;;;;28.02;51.95;94896.72;5136312;27;1210;-51
2022/08/26 07:42:12;;;;;;;;;;;;;;;28.21;49.96;94884.06;5135977;27;1084;-51
2022/08/26 07:44:39;;;;;;;;;;;;;;;28.43;49.08;94886.44;5147193;27;1220;-51
2022/08/26 07:47:07;;;;;;;;;;;;;;;28.37;48.10;94875.78;5156592;27;1023;-51
2022/08/26 07:49:33;;;;;;;;;;;;;;;28.46;49.30;94879.59;5156633;27;1897;-51
2022/08/26 07:51:59;;;;;;;;;;;;;;;28.41;47.77;94872.16;5156783;27;1052;-51
2022/08/26 07:54:25;;;;;;;;;;;;;;;28.31;47.91;94872.22;5156534;27;1126;-51
2022/08/26 07:56:51;;;;;;;;;;;;;;;28.26;47.13;94874.97;5156597;27;992;-51
2022/08/26 07:59:17;;;;;;;;;;;;;;;28.02;47.35;94872.00;5156380;27;1234;-51
2022/08/26 08:01:44;;;;;;;;;;;;;;;28.08;48.24;94872.81;5156403;27;1078;-51
2022/08/26 08:04:10;;;;;;;;;;;;;;;27.99;47.88;94867.06;5156331;27;991;-51
2022/08/26 08:06:37;;;;;;;;;;;;;;;27.94;48.77;94876.13;5156432;27;961;-51
2022/08/26 08:09:03;;;;;;;;;;;;;;;27.95;47.99;94879.72;5156256;27;1895;-51
2022/08/26 08:11:30;;;;;;;;;;;;;;;27.79;51.03;94871.47;5156237;27;1086;-51
2022/08/26 08:13:56;;;;;;;;;;;;;;;27.92;49.85;94863.78;5156315;27;953;-51
2022/08/26 08:16:25;;;;;;;;;;;;;;;27.78;51.12;94866.25;5155903;27;974;-51
2022/08/26 08:18:52;;;;;;;;;;;;;;;27.85;48.44;94870.34;5156094;27;949;-50
2022/08/26 08:21:18;;;;;;;;;;;;;;;27.95;46.95;94875.03;5156043;27;1036;-49
2022/08/26 08:23:44;;;;;;;;;;;;;;;28.02;48.84;94874.75;5155946;27;1095;-49
2022/08/26 08:26:10;;;;;;;;;;;;;;;28.00;49.00;94875.03;5155861;27;984;-50
2022/08/26 08:28:37;;;;;;;;;;;;;;;27.65;47.44;94876.69;5155443;27;1984;-51
2022/08/26 08:31:03;;;;;;;;;;;;;;;27.15;50.92;94880.19;5155688;27;1048;-51
2022/08/26 08:33:30;;;;;;;;;;;;;;;26.56;51.44;94871.25;5155827;27;1884;-51
2022/08/26 08:35:57;;;;;;;;;;;;;;;26.43;49.93;94871.75;5155596;27;1098;-51
2022/08/26 08:38:23;;;;;;;;;;;;;;;26.65;49.25;94864.19;5155676;27;1079;-51
2022/08/26 08:40:49;;;;;;;;;;;;;;;27.02;48.98;94867.84;5155777;27;965;-50
2022/08/26 08:43:35;;;;;;;;;;;;;;;27.32;48.83;94864.34;5155518;27;1099;-50
2022/08/26 08:46:09;;;;;;;;;;;;;;;27.64;49.71;94861.31;5103277;28;1401;-51
2022/08/26 08:48:37;;;;;;;;;;;;;;;27.87;47.95;94853.59;5114252;28;1929;-50
2022/08/26 08:51:03;;;;;;;;;;;;;;;28.01;48.26;94851.94;5114194;28;1040;-51
2022/08/26 08:53:35;;;;;;;;;;;;;;;28.11;46.61;94845.59;5114224;28;1040;-50
2022/08/26 08:56:01;;;;;;;;;;;;;;;28.10;47.43;94860.47;5114190;28;962;-51
2022/08/26 08:59:06;;;;;;;;;;;;;;;28.00;47.18;94849.47;5114042;28;1044;-51
2022/08/26 09:01:32;;;;;;;;;;;;;;;28.01;49.02;94840.94;5051050;28;1294;-51
2022/08/26 09:04:03;;;;;;;;;;;;;;;28.13;46.20;94845.31;5051230;28;983;-51
2022/08/26 09:06:30;;;;;;;;;;;;;;;28.19;45.86;94845.03;5072674;28;958;-51
2022/08/26 09:08:56;;;;;;;;;;;;;;;28.24;45.28;94839.50;5093492;28;1914;-51
2022/08/26 09:11:22;;;;;;;;;;;;;;;28.33;45.26;94841.69;5093307;28;1049;-51
2022/08/26 09:13:50;;;;;;;;;;;;;;;28.43;44.89;94842.47;5093777;28;989;-51
2022/08/26 09:16:19;;;;;;;;;;;;;;;28.49;44.45;94831.44;5093515;28;961;-51
2022/08/26 09:19:04;;;;;;;;;;;;;;;28.64;43.16;94844.34;5093570;28;1044;-50
2022/08/26 09:21:30;;;;;;;;;;;;;;;28.85;43.38;94837.63;5093215;28;981;-51
2022/08/26 09:23:57;;;;;;;;;;;;;;;28.99;42.07;94848.84;5093855;28;981;-50
2022/08/26 09:26:25;;;;;;;;;;;;;;;29.05;42.90;94844.94;5093469;28;988;-50
2022/08/26 09:28:59;;;;;;;;;;;;;;;29.00;43.09;94850.47;5093236;28;1910;-50
2022/08/26 09:31:29;;;;;;;;;;;;;;;28.88;43.75;94833.50;5093275;28;1873;-50
2022/08/26 09:34:04;;;;;;;;;;;;;;;28.88;43.89;94845.31;5093055;28;946;-51
2022/08/26 09:36:33;;;;;;;;;;;;;;;28.93;43.29;94838.94;5093545;28;961;-49
2022/08/26 09:38:59;;;;;;;;;;;;;;;29.07;44.51;94834.47;5093065;28;1024;-51
2022/08/26 09:41:30;;;;;;;;;;;;;;;29.17;41.93;94836.34;5097081;28;1239;-50
2022/08/26 09:44:13;;;;;;;;;;;;;;;29.17;43.89;94834.41;5107047;27;1289;-51
2022/08/26 09:46:41;;;;;;;;;;;;;;;29.23;41.80;94842.63;5138244;27;1000;-51
2022/08/26 09:49:25;;;;;;;;;;;;;;;29.28;41.03;94835.16;5138285;27;2031;-50
2022/08/26 09:52:10;;;;;;;;;;;;;;;29.53;40.58;94833.31;5119990;27;1091;-50
2022/08/26 09:54:37;;;;;;;;;;;;;;;29.68;40.21;94827.66;5138174;27;1014;-51
2022/08/26 09:57:17;;;;;;;;;;;;;;;29.70;41.16;94827.38;5137900;27;1071;-49
2022/08/26 09:59:43;;;;;;;;;;;;;;;29.60;40.25;94831.06;5146374;27;1119;-50
2022/08/26 10:02:33;;;;;;;;;;;;;;;29.67;39.90;94826.03;5158754;27;997;-50
2022/08/26 10:05:01;;;;;;;;;;;;;;;29.73;40.05;94824.09;5145411;27;1466;-50
2022/08/26 10:07:37;;;;;;;;;;;;;;;29.70;38.48;94824.63;5158400;27;1011;-51
2022/08/26 10:10:04;;;;;;;;;;;;;;;29.57;39.37;94820.59;5140419;27;1910;-50
2022/08/26 10:12:33;;;;;;;;;;;;;;;29.57;40.02;94817.84;5158595;27;1095;-50
2022/08/26 10:15:02;;;;;;;;;;;;;;;29.63;38.66;94819.44;5158759;27;976;-50
2022/08/26 10:17:28;;;;;;;;;;;;;;;29.65;40.13;94808.94;5158546;27;1039;-51
2022/08/26 10:20:04;;;;;;;;;;;;;;;29.54;39.15;94819.25;5158407;27;1090;-51
2022/08/26 10:22:36;;;;;;;;;;;;;;;29.50;37.00;94817.34;5158287;27;1170;-51
2022/08/26 10:25:05;;;;;;;;;;;;;;;29.53;39.39;94809.34;5158327;27;1027;-50
2022/08/26 10:27:46;;;;;;;;;;;;;;;29.58;39.51;94811.25;5158245;27;1035;-51
2022/08/26 10:30:15;;;;;;;;;;;;;;;29.58;38.54;94803.78;5158496;27;1905;-51
2022/08/26 10:32:53;;;;;;;;;;;;;;;29.51;38.99;94805.25;5158090;27;996;-51
2022/08/26 10:35:20;;;;;;;;;;;;;;;29.58;38.88;94800.22;5158064;27;1091;-51
2022/08/26 10:37:48;;;;;;;;;;;;;;;29.75;39.53;94794.31;5158082;27;1855;-50
2022/08/26 10:40:26;;;;;;;;;;;;;;;29.76;39.00;94794.00;5158174;27;1023;-51
2022/08/26 10:42:55;;;;;;;;;;;;;;;29.76;40.40;94795.94;5157882;27;1007;-51
2022/08/26 10:45:24;;;;;;;;;;;;;;;29.64;40.27;94793.56;5140860;27;1163;-53
2022/08/26 10:48:00;;;;;;;;;;;;;;;29.42;39.70;94791.25;5137276;27;1052;-50
2022/08/26 10:50:35;;;;;;;;;;;;;;;29.06;40.06;94788.75;5136719;27;1081;-50
2022/08/26 10:53:20;;;;;;;;;;;;;;;29.10;38.93;94783.50;5137020;27;1017;-49
2022/08/26 10:55:46;;;;;;;;;;;;;;;29.33;39.44;94781.97;5137034;27;1856;-50
2022/08/26 10:58:24;;;;;;;;;;;;;;;29.41;37.90;94792.38;5136669;27;1084;-50
2022/08/26 11:04:24;;;;;;;;;;;;;;;29.39;37.20;94781.66;5098090;27;1075;-50
2022/08/26 11:07:09;;;;;;;;;;;;;;;29.26;38.32;94776.81;5114923;27;1834;-50
2022/08/26 11:09:41;;;;;;;;;;;;;;;28.91;41.63;94781.47;5136674;27;1910;-49
2022/08/26 11:12:07;;;;;;;;;;;;;;;28.62;40.63;94775.88;5136597;27;1021;-50
2022/08/26 11:14:33;;;;;;;;;;;;;;;28.45;39.33;94767.94;5136841;27;1036;-50
2022/08/26 11:17:00;;;;;;;;;;;;;;;28.33;38.49;94775.72;5136665;27;1079;-50
2022/08/26 11:19:29;;;;;;;;;;;;;;;28.40;35.55;94782.56;5136615;27;973;-50
2022/08/26 11:22:06;;;;;;;;;;;;;;;28.47;36.27;94771.22;5118457;27;956;-50
2022/08/26 11:24:38;;;;;;;;;;;;;;;28.64;37.74;94781.91;5136386;27;977;-50
2022/08/26 11:27:06;;;;;;;;;;;;;;;28.92;36.89;94774.84;5136573;27;1062;-49
2022/08/26 11:29:50;;;;;;;;;;;;;;;29.07;36.70;94771.16;5136443;27;1910;-49
2022/08/26 11:32:24;;;;;;;;;;;;;;;29.24;37.10;94768.03;5136395;27;1017;-50
2022/08/26 11:34:52;;;;;;;;;;;;;;;29.29;35.72;94775.41;5136211;27;1056;-50
2022/08/26 11:37:20;;;;;;;;;;;;;;;29.28;36.63;94771.84;5136118;27;987;-50
2022/08/26 11:39:49;;;;;;;;;;;;;;;29.20;33.74;94769.72;5136082;27;1027;-50
2022/08/26 11:42:20;;;;;;;;;;;;;;;29.24;36.54;94764.47;5136305;27;965;-49
2022/08/26 11:44:47;;;;;;;;;;;;;;;29.08;35.99;94761.78;5148207;27;1149;-49
2022/08/26 11:47:14;;;;;;;;;;;;;;;29.07;36.86;94751.09;5156719;27;933;-50
2022/08/26 11:49:40;;;;;;;;;;;;;;;29.11;34.58;94755.72;5156452;27;1909;-50
2022/08/26 11:52:07;;;;;;;;;;;;;;;29.14;36.54;94746.91;5156580;27;965;-50
2022/08/26 11:54:33;;;;;;;;;;;;;;;29.26;36.62;94745.72;5156730;27;1199;-50
2022/08/26 11:56:59;;;;;;;;;;;;;;;29.23;35.58;94758.13;5156668;27;1932;-51
2022/08/26 11:59:32;;;;;;;;;;;;;;;29.12;35.38;94753.78;5156278;27;1111;-51
2022/08/26 12:01:59;;;;;;;;;;;;;;;29.06;36.08;94749.44;5156180;27;965;-51
2022/08/26 12:04:27;;;;;;;;;;;;;;;29.06;35.91;94750.25;5155846;27;810;-51
2022/08/26 12:06:53;;;;;;;;;;;;;;;29.08;35.42;94741.69;5156448;27;1039;-51
2022/08/26 12:09:21;;;;;;;;;;;;;;;28.98;35.87;94746.16;5156274;27;1917;-51
2022/08/26 12:11:47;;;;;;;;;;;;;;;28.93;35.43;94751.75;5156390;27;968;-51
2022/08/26 12:14:23;;;;;;;;;;;;;;;28.90;35.21;94744.03;5156110;27;1011;-49
2022/08/26 12:16:50;;;;;;;;;;;;;;;28.99;34.88;94739.56;5156297;27;1843;-49
2022/08/26 12:19:20;;;;;;;;;;;;;;;29.04;35.46;94735.13;5156049;27;1052;-49
2022/08/26 12:21:47;;;;;;;;;;;;;;;29.03;35.32;94734.31;5156336;27;980;-50
2022/08/26 12:24:17;;;;;;;;;;;;;;;29.02;34.65;94722.47;5156187;27;1011;-50
2022/08/26 12:26:43;;;;;;;;;;;;;;;29.07;34.64;94740.06;5155982;27;975;-50
2022/08/26 12:29:26;;;;;;;;;;;;;;;28.99;34.80;94739.56;5155898;27;1988;-51
2022/08/26 12:32:06;;;;;;;;;;;;;;;28.86;35.58;94733.91;5155991;27;984;-50
2022/08/26 12:34:32;;;;;;;;;;;;;;;28.83;33.99;94742.72;5155863;27;1016;-50
2022/08/26 12:36:58;;;;;;;;;;;;;;;28.79;34.73;94739.72;5155879;27;1051;-50
2022/08/26 12:39:35;;;;;;;;;;;;;;;28.71;35.34;94735.66;5155754;27;941;-50
2022/08/26 12:42:04;;;;;;;;;;;;;;;28.79;35.84;94734.22;5155562;27;1033;-50
2022/08/26 12:44:34;;;;;;;;;;;;;;;28.85;35.00;94733.06;5145912;27;1184;-50
2022/08/26 12:47:04;;;;;;;;;;;;;;;28.91;34.93;94740.19;5134930;27;1052;-50
2022/08/26 12:49:31;;;;;;;;;;;;;;;28.90;36.41;94727.53;5134976;27;1906;-50
2022/08/26 12:51:57;;;;;;;;;;;;;;;28.93;36.50;94735.22;5134761;27;952;-50
2022/08/26 12:54:57;;;;;;;;;;;;;;;28.94;35.35;94734.09;5134748;27;964;-50
2022/08/26 12:57:10;;;;;;;;;;;;;;;28.92;36.55;94730.81;5134381;27;1450;-51
2022/08/26 13:03:00;;;;;;;;;;;;;;;29.02;37.28;94729.91;4451830;27;1993;-50
2022/08/26 13:05:34;;;;;;;;;;;;;;;28.86;35.22;94728.41;5134605;27;977;-50
2022/08/26 13:08:11;;;;;;;;;;;;;;;28.64;35.07;94732.41;5134745;27;973;-50
2022/08/26 13:10:39;;;;;;;;;;;;;;;28.46;34.48;94738.53;5134406;27;1055;-50
2022/08/26 13:13:06;;;;;;;;;;;;;;;28.33;35.50;94723.50;5134409;27;1007;-50
2022/08/26 13:15:32;;;;;;;;;;;;;;;28.23;36.26;94719.69;5134147;27;977;-50
2022/08/26 13:17:58;;;;;;;;;;;;;;;28.18;36.27;94716.16;5134654;27;937;-50
2022/08/26 13:20:24;;;;;;;;;;;;;;;28.19;37.22;94723.28;5134461;27;977;-50